AirNav   Bose Proflight Series 2 Wireless Aviation Headset
 
 1124 users online  

FL69 Grande Oaks Golf Club Heliport
Davie, Florida, USA

GOING TO DAVIE?


FAA INFORMATION EFFECTIVE 07 NOVEMBER 2019

Location

FAA Identifier: FL69
Lat/Long: 26-04-47.3200N 080-15-17.1700W
26-04.788667N 080-15.286167W
26.0798111,-80.2547694
(estimated)
Elevation: 10 ft. / 3 m (estimated)
Variation: 05W (2000)
Time zone: UTC -5 (UTC -4 during Daylight Saving Time)
Zip code: 33328

Heliport Operations

Heliport use: Private use. Permission required prior to landing
Activation date: 02/2001
Control tower: no
ARTCC: MIAMI CENTER
FSS: MIAMI FLIGHT SERVICE STATION
Attendance: 0800-1600
Wind indicator: yes
Segmented circle: no

Heliport Communications

WX ASOS at HWO (5 nm S): PHONE 954-983-5904
WX ASOS at FLL (6 nm E): PHONE 954-359-7857
WX ASOS at FXE (8 nm NE): PHONE 954-772-2537
WX ASOS at OPF (10 nm S): 125.9 (305-681-4063)
WX ASOS at PMP (13 nm NE): PHONE 954-783-3720
WX ASOS at MIA (17 nm S): PHONE 305-870-0235
WX AWOS-3 at BCT (20 nm NE): 121.125 (561-391-2696)

Nearby radio navigation aids

VOR radial/distance  VOR name  Freq  Var
FLLr280/4.8FORT LAUDERDALE VOR/DME114.4006W
DHPr021/17.5DOLPHIN VORTAC113.9004W
VKZr349/20.4VIRGINIA KEY VOR/DME117.1004W
PBIr197/37.1PALM BEACH VORTAC115.7003W

Heliport Services

Runway Information

Helipad H1

Dimensions: 50 x 50 ft. / 15 x 15 m
Surface: turf
Operational restrictions: CIRCULAR HELIPAD.
Traffic pattern: leftleft

Heliport Ownership and Management from official FAA records

Ownership: Privately-owned
Owner: FLORIDA GOLF MANAGEMENT, INC
3201 ROLLING HILLS CIRCLE
DAVIE, FL 33329
Phone 954-916-2900
Manager: ED CAREY
3201 ROLLING HILLS CIRCLE
DAVIE, FL 33328
Phone 954-916-2900

Heliport Operational Statistics

Aircraft based on the field: 1
Helicopters: 1
    

Additional Remarks

FOR CD CTC MIAMI APCH AT 305-869-5432.

Instrument Procedures

There are no published instrument procedures at FL69.

Some nearby airports with instrument procedures:

KHWO - North Perry Airport (5 nm S)
KFLL - Fort Lauderdale/Hollywood International Airport (6 nm E)
KFXE - Fort Lauderdale Executive Airport (8 nm NE)
KOPF - Miami-Opa Locka Executive Airport (10 nm S)
KPMP - Pompano Beach Airpark (13 nm NE)
KMIA - Miami International Airport (17 nm S)
KBCT - Boca Raton Airport (20 nm NE)
 
Loc | Ops | Rwys | IFR | FBO | Links
Com | Nav | Svcs | Stats | Notes


 
Area around FL69 (Grande Oaks Golf Club Heliport)
 
Road maps at: MapQuest Bing Google
 
Aerial photo
No photo
 
Sectional chart

 
Airport distance calculator
Flying to Grande Oaks Golf Club Heliport? Find the distance to fly.

From to FL69

Sunrise and sunset
Times for 17-Nov-2019
 Local
(UTC-5)
 Zulu
(UTC)
Morning civil twilight06:1711:17
Sunrise06:4211:42
Sunset17:3022:30
Evening civil twilight17:5522:55

Current date and time
Zulu (UTC)  17-Nov-2019 17:28:51
Local (UTC-5)  17-Nov-2019 12:28:51
 
METAR
KHWO 
5nm S 
171723Z 32011KT 10SM OVC015 17/12 A2990 RMK AO2 T01670117 $
KFLL 
6nm E 
171653Z 30008KT 10SM OVC014 16/12 A2989 RMK AO2 SLP120 T01610117 $
KFXE 
8nm NE 
171653Z 30007KT 10SM OVC012 16/12 A2989 RMK AO2 SLP124 T01560117 $
KOPF 
10nm S 
171708Z 33011KT 10SM OVC015 17/12 A2990 RMK AO2 T01670122
KPMP 
13nm NE 
171653Z 31014KT 10SM OVC016 17/12 A2989 RMK AO2 SLP121 T01720117 $
KMIA 
18nm S 
171653Z 32007KT 10SM BKN010 17/11 A2990 RMK AO2 SLP125 T01670111 $
TAF
KFLL 
6nm E 
171606Z 1716/1818 30010KT P6SM BKN015 TEMPO 1716/1718 SCT015 FM171800 31010KT P6SM SCT025 TEMPO 1718/1719 BKN015 FM180000 VRB05KT P6SM FEW050 FM181500 28008KT P6SM SCT030 SCT050
KFXE 
8nm NE 
171606Z 1716/1812 31010KT P6SM BKN015 TEMPO 1716/1718 SCT015 FM171800 31010KT P6SM SCT025 TEMPO 1718/1719 BKN015 FM180000 VRB04KT P6SM FEW050
KOPF 
10nm S 
171606Z 1716/1812 30010KT P6SM BKN015 TEMPO 1716/1718 SCT015 FM171800 31010KT P6SM SCT025 TEMPO 1718/1719 BKN015 FM180000 VRB04KT P6SM FEW050
KMIA 
18nm S 
171606Z 1716/1818 31008KT P6SM BKN010 TEMPO 1716/1718 SCT015 FM171800 31010KT P6SM SCT025 TEMPO 1718/1719 BKN015 FM180000 VRB03KT P6SM FEW030 FM181500 28007KT P6SM SCT030 SCT050
NOTAMs
Click for the latest NOTAMs
NOTAMs are issued by the DoD/FAA and will open in a separate window not controlled by AirNav.

 

 
 

Would you like to see your business listed on this page?

 If your business provides an interesting product or service to pilots, flight crews, aircraft, or users of the Grande Oaks Golf Club Heliport, you should consider listing it here.  To start the listing process, click on the button below
 
Add a business
 

Other Pages about Grande Oaks Golf Club Heliport

Update a link
 
Copyright © AirNav, LLC. All rights reserved. Privacy Policy  Contact